sensor_id;sensor_type;location;lat;lon;timestamp;P1;durP1;ratioP1;P2;durP2;ratioP2
35743;SDS011;21867;52.012;4.324;2024-02-15T00:02:00;35.60;;;31.87;;
35743;SDS011;21867;52.012;4.324;2024-02-15T00:04:27;33.57;;;30.83;;
35743;SDS011;21867;52.012;4.324;2024-02-15T00:06:55;30.73;;;27.93;;
35743;SDS011;21867;52.012;4.324;2024-02-15T00:09:22;32.77;;;29.60;;
35743;SDS011;21867;52.012;4.324;2024-02-15T00:11:51;35.63;;;32.63;;
35743;SDS011;21867;52.012;4.324;2024-02-15T00:14:19;36.43;;;33.40;;
35743;SDS011;21867;52.012;4.324;2024-02-15T00:16:53;34.20;;;31.30;;
35743;SDS011;21867;52.012;4.324;2024-02-15T00:19:26;30.43;;;28.10;;
35743;SDS011;21867;52.012;4.324;2024-02-15T00:21:55;34.80;;;31.30;;
35743;SDS011;21867;52.012;4.324;2024-02-15T00:24:22;31.07;;;28.40;;
35743;SDS011;21867;52.012;4.324;2024-02-15T00:26:51;34.73;;;31.77;;
35743;SDS011;21867;52.012;4.324;2024-02-15T00:29:19;32.37;;;29.20;;
35743;SDS011;21867;52.012;4.324;2024-02-15T00:31:46;31.20;;;28.73;;
35743;SDS011;21867;52.012;4.324;2024-02-15T00:34:14;34.13;;;31.13;;
35743;SDS011;21867;52.012;4.324;2024-02-15T00:36:48;32.27;;;29.40;;
35743;SDS011;21867;52.012;4.324;2024-02-15T00:39:16;35.63;;;32.27;;
35743;SDS011;21867;52.012;4.324;2024-02-15T00:41:43;34.20;;;31.50;;
35743;SDS011;21867;52.012;4.324;2024-02-15T00:44:12;33.27;;;30.73;;
35743;SDS011;21867;52.012;4.324;2024-02-15T00:46:39;35.73;;;32.30;;
35743;SDS011;21867;52.012;4.324;2024-02-15T00:49:06;35.83;;;32.90;;
35743;SDS011;21867;52.012;4.324;2024-02-15T00:51:35;37.77;;;34.50;;
35743;SDS011;21867;52.012;4.324;2024-02-15T00:54:03;37.23;;;33.17;;
35743;SDS011;21867;52.012;4.324;2024-02-15T00:56:30;40.50;;;37.17;;
35743;SDS011;21867;52.012;4.324;2024-02-15T00:58:58;41.10;;;37.33;;
35743;SDS011;21867;52.012;4.324;2024-02-15T01:01:28;41.63;;;38.03;;
35743;SDS011;21867;52.012;4.324;2024-02-15T01:03:55;35.80;;;32.33;;
35743;SDS011;21867;52.012;4.324;2024-02-15T01:06:22;37.70;;;33.93;;
35743;SDS011;21867;52.012;4.324;2024-02-15T01:08:50;38.87;;;35.20;;
35743;SDS011;21867;52.012;4.324;2024-02-15T01:11:17;37.20;;;33.60;;
35743;SDS011;21867;52.012;4.324;2024-02-15T01:13:45;35.50;;;32.50;;
35743;SDS011;21867;52.012;4.324;2024-02-15T01:16:12;37.73;;;34.00;;
35743;SDS011;21867;52.012;4.324;2024-02-15T01:18:41;37.20;;;34.37;;
35743;SDS011;21867;52.012;4.324;2024-02-15T01:21:09;35.50;;;32.40;;
35743;SDS011;21867;52.012;4.324;2024-02-15T01:23:36;32.90;;;30.00;;
35743;SDS011;21867;52.012;4.324;2024-02-15T01:26:13;30.97;;;28.07;;
35743;SDS011;21867;52.012;4.324;2024-02-15T01:28:40;33.23;;;30.27;;
35743;SDS011;21867;52.012;4.324;2024-02-15T01:31:07;35.27;;;31.23;;
35743;SDS011;21867;52.012;4.324;2024-02-15T01:33:35;33.77;;;30.63;;
35743;SDS011;21867;52.012;4.324;2024-02-15T01:39:51;29.53;;;26.70;;
35743;SDS011;21867;52.012;4.324;2024-02-15T01:42:18;30.17;;;27.40;;
35743;SDS011;21867;52.012;4.324;2024-02-15T01:44:46;28.50;;;25.50;;
35743;SDS011;21867;52.012;4.324;2024-02-15T01:47:14;29.93;;;27.33;;
35743;SDS011;21867;52.012;4.324;2024-02-15T01:49:42;29.23;;;26.30;;
35743;SDS011;21867;52.012;4.324;2024-02-15T01:52:09;30.17;;;27.13;;
35743;SDS011;21867;52.012;4.324;2024-02-15T01:54:46;26.50;;;24.33;;
35743;SDS011;21867;52.012;4.324;2024-02-15T01:57:14;31.23;;;23.23;;
35743;SDS011;21867;52.012;4.324;2024-02-15T01:59:42;31.80;;;28.93;;
35743;SDS011;21867;52.012;4.324;2024-02-15T02:02:10;29.27;;;26.37;;
35743;SDS011;21867;52.012;4.324;2024-02-15T02:04:52;30.07;;;27.70;;
35743;SDS011;21867;52.012;4.324;2024-02-15T02:07:31;29.97;;;27.50;;
35743;SDS011;21867;52.012;4.324;2024-02-15T02:09:58;30.07;;;27.30;;
35743;SDS011;21867;52.012;4.324;2024-02-15T02:12:27;28.13;;;25.53;;
35743;SDS011;21867;52.012;4.324;2024-02-15T02:14:55;27.27;;;24.87;;
35743;SDS011;21867;52.012;4.324;2024-02-15T02:17:22;35.23;;;29.93;;
35743;SDS011;21867;52.012;4.324;2024-02-15T02:19:50;30.90;;;28.00;;
35743;SDS011;21867;52.012;4.324;2024-02-15T02:22:18;30.67;;;27.90;;
35743;SDS011;21867;52.012;4.324;2024-02-15T02:25:03;30.90;;;28.17;;
35743;SDS011;21867;52.012;4.324;2024-02-15T02:27:32;29.27;;;26.47;;
35743;SDS011;21867;52.012;4.324;2024-02-15T02:29:59;29.57;;;27.33;;
35743;SDS011;21867;52.012;4.324;2024-02-15T02:32:27;33.43;;;30.03;;
35743;SDS011;21867;52.012;4.324;2024-02-15T02:34:56;33.43;;;30.27;;
35743;SDS011;21867;52.012;4.324;2024-02-15T02:37:23;30.13;;;27.73;;
35743;SDS011;21867;52.012;4.324;2024-02-15T02:39:50;28.60;;;26.30;;
35743;SDS011;21867;52.012;4.324;2024-02-15T02:42:19;27.07;;;24.77;;
35743;SDS011;21867;52.012;4.324;2024-02-15T02:44:47;32.53;;;28.20;;
35743;SDS011;21867;52.012;4.324;2024-02-15T02:47:14;29.27;;;26.80;;
35743;SDS011;21867;52.012;4.324;2024-02-15T02:49:42;29.83;;;27.23;;
35743;SDS011;21867;52.012;4.324;2024-02-15T02:52:09;30.33;;;27.90;;
35743;SDS011;21867;52.012;4.324;2024-02-15T02:54:37;28.13;;;25.53;;
35743;SDS011;21867;52.012;4.324;2024-02-15T02:57:04;29.13;;;26.73;;
35743;SDS011;21867;52.012;4.324;2024-02-15T02:59:34;31.10;;;28.67;;
35743;SDS011;21867;52.012;4.324;2024-02-15T03:02:02;32.40;;;29.43;;
35743;SDS011;21867;52.012;4.324;2024-02-15T03:04:29;30.23;;;27.37;;
35743;SDS011;21867;52.012;4.324;2024-02-15T03:06:57;31.50;;;29.03;;
35743;SDS011;21867;52.012;4.324;2024-02-15T03:09:30;33.33;;;30.43;;
35743;SDS011;21867;52.012;4.324;2024-02-15T03:11:57;34.17;;;31.10;;
35743;SDS011;21867;52.012;4.324;2024-02-15T03:14:24;34.83;;;31.83;;
35743;SDS011;21867;52.012;4.324;2024-02-15T03:16:56;33.97;;;30.93;;
35743;SDS011;21867;52.012;4.324;2024-02-15T03:19:24;33.80;;;31.27;;
35743;SDS011;21867;52.012;4.324;2024-02-15T03:21:51;35.70;;;32.87;;
35743;SDS011;21867;52.012;4.324;2024-02-15T03:24:19;33.50;;;30.70;;
35743;SDS011;21867;52.012;4.324;2024-02-15T03:26:46;33.87;;;30.80;;
35743;SDS011;21867;52.012;4.324;2024-02-15T03:29:13;37.13;;;33.67;;
35743;SDS011;21867;52.012;4.324;2024-02-15T03:31:41;34.53;;;31.63;;
35743;SDS011;21867;52.012;4.324;2024-02-15T03:34:10;29.90;;;27.27;;
35743;SDS011;21867;52.012;4.324;2024-02-15T03:36:38;39.00;;;29.13;;
35743;SDS011;21867;52.012;4.324;2024-02-15T03:39:05;28.53;;;26.17;;
35743;SDS011;21867;52.012;4.324;2024-02-15T03:41:33;28.70;;;25.73;;
35743;SDS011;21867;52.012;4.324;2024-02-15T03:44:00;28.70;;;26.30;;
35743;SDS011;21867;52.012;4.324;2024-02-15T03:46:27;27.20;;;24.60;;
35743;SDS011;21867;52.012;4.324;2024-02-15T03:48:55;26.33;;;23.97;;
35743;SDS011;21867;52.012;4.324;2024-02-15T03:51:23;26.00;;;23.90;;
35743;SDS011;21867;52.012;4.324;2024-02-15T03:53:51;29.37;;;26.53;;
35743;SDS011;21867;52.012;4.324;2024-02-15T03:56:19;23.37;;;21.07;;
35743;SDS011;21867;52.012;4.324;2024-02-15T03:58:46;25.60;;;23.47;;
35743;SDS011;21867;52.012;4.324;2024-02-15T04:01:13;26.87;;;23.97;;
35743;SDS011;21867;52.012;4.324;2024-02-15T04:03:41;25.67;;;23.20;;
35743;SDS011;21867;52.012;4.324;2024-02-15T04:06:09;25.20;;;22.80;;
35743;SDS011;21867;52.012;4.324;2024-02-15T04:08:38;25.97;;;23.57;;
35743;SDS011;21867;52.012;4.324;2024-02-15T04:11:06;29.20;;;25.80;;
35743;SDS011;21867;52.012;4.324;2024-02-15T04:13:33;32.27;;;28.80;;
35743;SDS011;21867;52.012;4.324;2024-02-15T04:16:01;29.77;;;26.60;;
35743;SDS011;21867;52.012;4.324;2024-02-15T04:18:28;30.07;;;27.03;;
35743;SDS011;21867;52.012;4.324;2024-02-15T04:20:55;38.43;;;32.00;;
35743;SDS011;21867;52.012;4.324;2024-02-15T04:23:23;32.63;;;28.80;;
35743;SDS011;21867;52.012;4.324;2024-02-15T04:25:52;36.43;;;31.37;;
35743;SDS011;21867;52.012;4.324;2024-02-15T04:28:20;36.57;;;32.67;;
35743;SDS011;21867;52.012;4.324;2024-02-15T04:30:47;38.87;;;32.33;;
35743;SDS011;21867;52.012;4.324;2024-02-15T04:33:14;40.37;;;30.90;;
35743;SDS011;21867;52.012;4.324;2024-02-15T04:35:42;39.23;;;31.50;;
35743;SDS011;21867;52.012;4.324;2024-02-15T04:38:18;36.67;;;32.43;;
35743;SDS011;21867;52.012;4.324;2024-02-15T04:40:49;41.97;;;33.87;;
35743;SDS011;21867;52.012;4.324;2024-02-15T04:43:18;42.20;;;32.13;;
35743;SDS011;21867;52.012;4.324;2024-02-15T04:45:45;39.60;;;27.70;;
35743;SDS011;21867;52.012;4.324;2024-02-15T04:48:12;37.93;;;28.63;;
35743;SDS011;21867;52.012;4.324;2024-02-15T04:50:40;37.43;;;26.83;;
35743;SDS011;21867;52.012;4.324;2024-02-15T04:53:07;32.20;;;24.70;;
35743;SDS011;21867;52.012;4.324;2024-02-15T04:55:35;32.10;;;24.43;;
35743;SDS011;21867;52.012;4.324;2024-02-15T04:58:02;35.90;;;24.83;;
35743;SDS011;21867;52.012;4.324;2024-02-15T05:00:31;36.47;;;24.00;;
35743;SDS011;21867;52.012;4.324;2024-02-15T05:02:58;28.63;;;20.47;;
35743;SDS011;21867;52.012;4.324;2024-02-15T05:05:26;32.80;;;25.33;;
35743;SDS011;21867;52.012;4.324;2024-02-15T05:07:59;30.93;;;23.83;;
35743;SDS011;21867;52.012;4.324;2024-02-15T05:13:18;32.17;;;23.97;;
35743;SDS011;21867;52.012;4.324;2024-02-15T05:15:47;35.83;;;24.30;;
35743;SDS011;21867;52.012;4.324;2024-02-15T05:18:14;33.73;;;23.33;;
35743;SDS011;21867;52.012;4.324;2024-02-15T05:20:42;34.53;;;23.17;;
35743;SDS011;21867;52.012;4.324;2024-02-15T05:23:09;30.27;;;21.60;;
35743;SDS011;21867;52.012;4.324;2024-02-15T05:25:37;28.93;;;20.93;;
35743;SDS011;21867;52.012;4.324;2024-02-15T05:28:09;28.53;;;21.50;;
35743;SDS011;21867;52.012;4.324;2024-02-15T05:30:37;32.00;;;21.83;;
35743;SDS011;21867;52.012;4.324;2024-02-15T05:33:06;35.80;;;23.00;;
35743;SDS011;21867;52.012;4.324;2024-02-15T05:35:33;32.93;;;22.00;;
35743;SDS011;21867;52.012;4.324;2024-02-15T05:41:08;31.37;;;21.27;;
35743;SDS011;21867;52.012;4.324;2024-02-15T05:43:41;28.10;;;21.40;;
35743;SDS011;21867;52.012;4.324;2024-02-15T05:46:09;25.47;;;20.43;;
35743;SDS011;21867;52.012;4.324;2024-02-15T05:48:38;31.43;;;20.70;;
35743;SDS011;21867;52.012;4.324;2024-02-15T05:51:06;33.50;;;23.40;;
35743;SDS011;21867;52.012;4.324;2024-02-15T05:53:34;26.93;;;20.37;;
35743;SDS011;21867;52.012;4.324;2024-02-15T05:56:03;25.20;;;21.03;;
35743;SDS011;21867;52.012;4.324;2024-02-15T05:58:31;23.03;;;18.77;;
35743;SDS011;21867;52.012;4.324;2024-02-15T06:00:58;25.67;;;20.97;;
35743;SDS011;21867;52.012;4.324;2024-02-15T06:03:26;23.93;;;19.30;;
35743;SDS011;21867;52.012;4.324;2024-02-15T06:05:54;26.80;;;20.13;;
35743;SDS011;21867;52.012;4.324;2024-02-15T06:11:18;18.43;;;16.57;;
35743;SDS011;21867;52.012;4.324;2024-02-15T06:13:46;21.50;;;18.50;;
35743;SDS011;21867;52.012;4.324;2024-02-15T06:16:13;22.17;;;19.47;;
35743;SDS011;21867;52.012;4.324;2024-02-15T06:18:40;20.57;;;17.43;;
35743;SDS011;21867;52.012;4.324;2024-02-15T06:21:10;22.00;;;18.53;;
35743;SDS011;21867;52.012;4.324;2024-02-15T06:23:37;23.23;;;17.87;;
35743;SDS011;21867;52.012;4.324;2024-02-15T06:26:05;23.37;;;19.27;;
35743;SDS011;21867;52.012;4.324;2024-02-15T06:28:32;23.63;;;16.67;;
35743;SDS011;21867;52.012;4.324;2024-02-15T06:30:59;22.13;;;18.33;;
35743;SDS011;21867;52.012;4.324;2024-02-15T06:33:27;23.10;;;18.23;;
35743;SDS011;21867;52.012;4.324;2024-02-15T06:35:54;23.30;;;17.93;;
35743;SDS011;21867;52.012;4.324;2024-02-15T06:38:23;20.60;;;17.77;;
35743;SDS011;21867;52.012;4.324;2024-02-15T06:40:51;19.83;;;17.77;;
35743;SDS011;21867;52.012;4.324;2024-02-15T06:43:18;22.90;;;18.70;;
35743;SDS011;21867;52.012;4.324;2024-02-15T06:45:46;26.40;;;18.87;;
35743;SDS011;21867;52.012;4.324;2024-02-15T06:48:13;21.33;;;19.20;;
35743;SDS011;21867;52.012;4.324;2024-02-15T06:50:40;21.87;;;18.43;;
35743;SDS011;21867;52.012;4.324;2024-02-15T06:53:08;24.27;;;19.30;;
35743;SDS011;21867;52.012;4.324;2024-02-15T06:55:38;26.57;;;20.30;;
35743;SDS011;21867;52.012;4.324;2024-02-15T06:58:05;21.73;;;19.07;;
35743;SDS011;21867;52.012;4.324;2024-02-15T07:00:32;28.00;;;21.53;;
35743;SDS011;21867;52.012;4.324;2024-02-15T07:03:00;23.83;;;20.40;;
35743;SDS011;21867;52.012;4.324;2024-02-15T07:05:27;26.43;;;20.37;;
35743;SDS011;21867;52.012;4.324;2024-02-15T07:07:55;31.10;;;21.40;;
35743;SDS011;21867;52.012;4.324;2024-02-15T07:10:22;25.13;;;19.40;;
35743;SDS011;21867;52.012;4.324;2024-02-15T07:12:51;29.17;;;20.73;;
35743;SDS011;21867;52.012;4.324;2024-02-15T07:15:18;28.00;;;20.43;;
35743;SDS011;21867;52.012;4.324;2024-02-15T07:17:45;23.10;;;20.47;;
35743;SDS011;21867;52.012;4.324;2024-02-15T07:20:13;30.33;;;21.13;;
35743;SDS011;21867;52.012;4.324;2024-02-15T07:22:40;33.67;;;21.23;;
35743;SDS011;21867;52.012;4.324;2024-02-15T07:25:08;26.53;;;20.90;;
35743;SDS011;21867;52.012;4.324;2024-02-15T07:27:35;30.20;;;20.80;;
35743;SDS011;21867;52.012;4.324;2024-02-15T07:30:04;20.73;;;16.93;;
35743;SDS011;21867;52.012;4.324;2024-02-15T07:32:32;28.90;;;20.10;;
35743;SDS011;21867;52.012;4.324;2024-02-15T07:34:59;30.70;;;19.03;;
35743;SDS011;21867;52.012;4.324;2024-02-15T07:37:27;26.73;;;20.57;;
35743;SDS011;21867;52.012;4.324;2024-02-15T07:39:54;22.47;;;18.57;;
35743;SDS011;21867;52.012;4.324;2024-02-15T07:42:21;26.17;;;18.13;;
35743;SDS011;21867;52.012;4.324;2024-02-15T07:44:49;25.40;;;19.40;;
35743;SDS011;21867;52.012;4.324;2024-02-15T07:47:18;26.57;;;19.50;;
35743;SDS011;21867;52.012;4.324;2024-02-15T07:49:45;30.93;;;19.20;;
35743;SDS011;21867;52.012;4.324;2024-02-15T07:52:13;28.50;;;21.73;;
35743;SDS011;21867;52.012;4.324;2024-02-15T07:54:40;29.40;;;21.17;;
35743;SDS011;21867;52.012;4.324;2024-02-15T07:57:07;24.77;;;19.03;;
35743;SDS011;21867;52.012;4.324;2024-02-15T07:59:35;24.77;;;18.10;;
35743;SDS011;21867;52.012;4.324;2024-02-15T08:02:03;30.27;;;20.57;;
35743;SDS011;21867;52.012;4.324;2024-02-15T08:04:32;27.90;;;21.40;;
35743;SDS011;21867;52.012;4.324;2024-02-15T08:06:59;25.87;;;20.53;;
35743;SDS011;21867;52.012;4.324;2024-02-15T08:09:27;24.50;;;18.00;;
35743;SDS011;21867;52.012;4.324;2024-02-15T08:11:54;25.93;;;20.13;;
35743;SDS011;21867;52.012;4.324;2024-02-15T08:14:21;25.00;;;18.67;;
35743;SDS011;21867;52.012;4.324;2024-02-15T08:16:49;32.07;;;22.00;;
35743;SDS011;21867;52.012;4.324;2024-02-15T08:19:16;28.43;;;20.13;;
35743;SDS011;21867;52.012;4.324;2024-02-15T08:21:45;27.93;;;20.17;;
35743;SDS011;21867;52.012;4.324;2024-02-15T08:24:13;28.43;;;17.97;;
35743;SDS011;21867;52.012;4.324;2024-02-15T08:26:40;35.57;;;20.73;;
35743;SDS011;21867;52.012;4.324;2024-02-15T08:29:08;26.80;;;17.60;;
35743;SDS011;21867;52.012;4.324;2024-02-15T08:31:36;21.80;;;16.03;;
35743;SDS011;21867;52.012;4.324;2024-02-15T08:34:03;25.97;;;18.20;;
35743;SDS011;21867;52.012;4.324;2024-02-15T08:36:31;27.87;;;16.83;;
35743;SDS011;21867;52.012;4.324;2024-02-15T08:39:00;26.23;;;17.47;;
35743;SDS011;21867;52.012;4.324;2024-02-15T08:41:27;25.53;;;15.87;;
35743;SDS011;21867;52.012;4.324;2024-02-15T08:43:55;23.00;;;16.70;;
35743;SDS011;21867;52.012;4.324;2024-02-15T08:46:22;31.00;;;15.67;;
35743;SDS011;21867;52.012;4.324;2024-02-15T08:48:50;24.60;;;17.23;;
35743;SDS011;21867;52.012;4.324;2024-02-15T08:51:17;28.70;;;16.47;;
35743;SDS011;21867;52.012;4.324;2024-02-15T08:53:49;20.37;;;14.10;;
35743;SDS011;21867;52.012;4.324;2024-02-15T08:56:18;20.87;;;13.37;;
35743;SDS011;21867;52.012;4.324;2024-02-15T08:58:46;22.43;;;15.73;;
35743;SDS011;21867;52.012;4.324;2024-02-15T09:01:13;24.80;;;13.73;;
35743;SDS011;21867;52.012;4.324;2024-02-15T09:03:41;29.13;;;15.90;;
35743;SDS011;21867;52.012;4.324;2024-02-15T09:06:08;27.73;;;15.73;;
35743;SDS011;21867;52.012;4.324;2024-02-15T09:08:36;19.20;;;12.27;;
35743;SDS011;21867;52.012;4.324;2024-02-15T09:11:04;19.63;;;12.93;;
35743;SDS011;21867;52.012;4.324;2024-02-15T09:13:35;20.47;;;13.90;;
35743;SDS011;21867;52.012;4.324;2024-02-15T09:16:02;20.87;;;14.37;;
35743;SDS011;21867;52.012;4.324;2024-02-15T09:18:30;23.97;;;14.17;;
35743;SDS011;21867;52.012;4.324;2024-02-15T09:20:57;21.63;;;14.00;;
35743;SDS011;21867;52.012;4.324;2024-02-15T09:23:25;26.73;;;15.30;;
35743;SDS011;21867;52.012;4.324;2024-02-15T09:25:52;18.83;;;13.30;;
35743;SDS011;21867;52.012;4.324;2024-02-15T09:28:19;19.17;;;12.40;;
35743;SDS011;21867;52.012;4.324;2024-02-15T09:30:48;22.83;;;15.20;;
35743;SDS011;21867;52.012;4.324;2024-02-15T09:33:16;19.63;;;13.87;;
35743;SDS011;21867;52.012;4.324;2024-02-15T09:35:43;23.27;;;15.73;;
35743;SDS011;21867;52.012;4.324;2024-02-15T09:38:11;24.23;;;14.90;;
35743;SDS011;21867;52.012;4.324;2024-02-15T09:40:38;25.43;;;15.57;;
35743;SDS011;21867;52.012;4.324;2024-02-15T09:43:05;19.93;;;15.20;;
35743;SDS011;21867;52.012;4.324;2024-02-15T09:45:33;21.63;;;14.53;;
35743;SDS011;21867;52.012;4.324;2024-02-15T09:48:03;20.50;;;15.87;;
35743;SDS011;21867;52.012;4.324;2024-02-15T09:50:31;18.80;;;13.80;;
35743;SDS011;21867;52.012;4.324;2024-02-15T09:53:01;17.87;;;13.73;;
35743;SDS011;21867;52.012;4.324;2024-02-15T09:55:29;21.00;;;15.00;;
35743;SDS011;21867;52.012;4.324;2024-02-15T09:57:57;17.40;;;14.60;;
35743;SDS011;21867;52.012;4.324;2024-02-15T10:00:24;21.30;;;14.57;;
35743;SDS011;21867;52.012;4.324;2024-02-15T10:02:52;20.90;;;14.13;;
35743;SDS011;21867;52.012;4.324;2024-02-15T10:05:21;24.00;;;16.83;;
35743;SDS011;21867;52.012;4.324;2024-02-15T10:07:49;20.57;;;17.10;;
35743;SDS011;21867;52.012;4.324;2024-02-15T10:10:17;22.23;;;16.27;;
35743;SDS011;21867;52.012;4.324;2024-02-15T10:12:45;25.97;;;16.73;;
35743;SDS011;21867;52.012;4.324;2024-02-15T10:15:14;25.43;;;17.80;;
35743;SDS011;21867;52.012;4.324;2024-02-15T10:17:56;25.07;;;15.17;;
35743;SDS011;21867;52.012;4.324;2024-02-15T10:20:25;22.53;;;16.53;;
35743;SDS011;21867;52.012;4.324;2024-02-15T10:22:53;18.50;;;16.00;;
35743;SDS011;21867;52.012;4.324;2024-02-15T10:25:20;18.63;;;13.80;;
35743;SDS011;21867;52.012;4.324;2024-02-15T10:27:48;23.80;;;15.73;;
35743;SDS011;21867;52.012;4.324;2024-02-15T10:30:16;24.83;;;15.30;;
35743;SDS011;21867;52.012;4.324;2024-02-15T10:32:44;15.30;;;13.40;;
35743;SDS011;21867;52.012;4.324;2024-02-15T10:35:18;17.40;;;13.07;;
35743;SDS011;21867;52.012;4.324;2024-02-15T10:37:48;19.87;;;14.63;;
35743;SDS011;21867;52.012;4.324;2024-02-15T10:40:19;15.67;;;12.70;;
35743;SDS011;21867;52.012;4.324;2024-02-15T10:45:35;21.20;;;14.43;;
35743;SDS011;21867;52.012;4.324;2024-02-15T10:48:04;17.33;;;14.67;;
35743;SDS011;21867;52.012;4.324;2024-02-15T10:50:32;20.17;;;14.53;;
35743;SDS011;21867;52.012;4.324;2024-02-15T10:53:02;19.77;;;15.13;;
35743;SDS011;21867;52.012;4.324;2024-02-15T10:55:35;28.70;;;15.73;;
35743;SDS011;21867;52.012;4.324;2024-02-15T10:58:03;21.47;;;14.83;;
35743;SDS011;21867;52.012;4.324;2024-02-15T11:00:38;26.67;;;16.23;;
35743;SDS011;21867;52.012;4.324;2024-02-15T11:03:07;17.87;;;14.77;;
35743;SDS011;21867;52.012;4.324;2024-02-15T11:05:35;21.17;;;18.97;;
35743;SDS011;21867;52.012;4.324;2024-02-15T11:08:05;22.00;;;18.13;;
35743;SDS011;21867;52.012;4.324;2024-02-15T11:10:32;35.97;;;19.23;;
35743;SDS011;21867;52.012;4.324;2024-02-15T11:13:02;26.93;;;20.27;;
35743;SDS011;21867;52.012;4.324;2024-02-15T11:15:43;29.23;;;17.97;;
35743;SDS011;21867;52.012;4.324;2024-02-15T11:18:10;26.93;;;22.07;;
35743;SDS011;21867;52.012;4.324;2024-02-15T11:20:49;35.73;;;22.27;;
35743;SDS011;21867;52.012;4.324;2024-02-15T11:23:26;28.23;;;20.43;;
35743;SDS011;21867;52.012;4.324;2024-02-15T11:26:02;27.10;;;19.83;;
35743;SDS011;21867;52.012;4.324;2024-02-15T11:28:36;31.50;;;20.80;;
35743;SDS011;21867;52.012;4.324;2024-02-15T11:31:10;25.87;;;19.37;;
35743;SDS011;21867;52.012;4.324;2024-02-15T11:33:37;24.63;;;15.20;;
35743;SDS011;21867;52.012;4.324;2024-02-15T11:36:06;29.70;;;18.77;;
35743;SDS011;21867;52.012;4.324;2024-02-15T11:38:35;29.23;;;16.87;;
35743;SDS011;21867;52.012;4.324;2024-02-15T11:47:37;24.10;;;16.13;;
35743;SDS011;21867;52.012;4.324;2024-02-15T11:50:07;21.00;;;15.80;;
35743;SDS011;21867;52.012;4.324;2024-02-15T11:52:34;16.13;;;11.67;;
35743;SDS011;21867;52.012;4.324;2024-02-15T11:55:07;13.13;;;10.47;;
35743;SDS011;21867;52.012;4.324;2024-02-15T11:57:34;19.50;;;12.13;;
35743;SDS011;21867;52.012;4.324;2024-02-15T12:00:01;16.47;;;12.70;;
35743;SDS011;21867;52.012;4.324;2024-02-15T12:02:58;17.43;;;12.03;;
35743;SDS011;21867;52.012;4.324;2024-02-15T12:05:26;15.90;;;10.70;;
35743;SDS011;21867;52.012;4.324;2024-02-15T12:07:53;14.27;;;11.73;;
35743;SDS011;21867;52.012;4.324;2024-02-15T12:10:22;14.20;;;9.70;;
35743;SDS011;21867;52.012;4.324;2024-02-15T12:12:50;8.93;;;7.50;;
35743;SDS011;21867;52.012;4.324;2024-02-15T12:15:18;7.90;;;5.90;;
35743;SDS011;21867;52.012;4.324;2024-02-15T12:17:45;11.17;;;8.23;;
35743;SDS011;21867;52.012;4.324;2024-02-15T12:20:13;7.63;;;5.37;;
35743;SDS011;21867;52.012;4.324;2024-02-15T12:22:41;8.73;;;5.63;;
35743;SDS011;21867;52.012;4.324;2024-02-15T12:25:13;9.63;;;6.63;;
35743;SDS011;21867;52.012;4.324;2024-02-15T12:27:42;9.23;;;6.57;;
35743;SDS011;21867;52.012;4.324;2024-02-15T12:30:32;8.43;;;5.80;;
35743;SDS011;21867;52.012;4.324;2024-02-15T12:33:08;9.07;;;5.73;;
35743;SDS011;21867;52.012;4.324;2024-02-15T12:35:36;8.43;;;5.70;;
35743;SDS011;21867;52.012;4.324;2024-02-15T12:38:03;7.30;;;6.23;;
35743;SDS011;21867;52.012;4.324;2024-02-15T12:40:31;6.93;;;4.70;;
35743;SDS011;21867;52.012;4.324;2024-02-15T12:43:00;7.30;;;6.10;;
35743;SDS011;21867;52.012;4.324;2024-02-15T12:47:56;4.53;;;3.97;;
35743;SDS011;21867;52.012;4.324;2024-02-15T12:50:23;9.97;;;5.50;;
35743;SDS011;21867;52.012;4.324;2024-02-15T12:52:54;5.97;;;4.40;;
35743;SDS011;21867;52.012;4.324;2024-02-15T12:55:22;8.03;;;4.50;;
35743;SDS011;21867;52.012;4.324;2024-02-15T12:57:50;5.63;;;3.73;;
35743;SDS011;21867;52.012;4.324;2024-02-15T13:00:25;6.60;;;3.97;;
35743;SDS011;21867;52.012;4.324;2024-02-15T13:02:53;4.17;;;3.50;;
35743;SDS011;21867;52.012;4.324;2024-02-15T13:05:20;5.77;;;3.37;;
35743;SDS011;21867;52.012;4.324;2024-02-15T13:07:48;5.27;;;3.63;;
35743;SDS011;21867;52.012;4.324;2024-02-15T13:10:16;5.97;;;3.97;;
35743;SDS011;21867;52.012;4.324;2024-02-15T13:12:44;4.20;;;2.63;;
35743;SDS011;21867;52.012;4.324;2024-02-15T13:15:13;4.30;;;3.37;;
35743;SDS011;21867;52.012;4.324;2024-02-15T13:17:44;3.50;;;3.03;;
35743;SDS011;21867;52.012;4.324;2024-02-15T13:20:12;10.53;;;4.00;;
35743;SDS011;21867;52.012;4.324;2024-02-15T13:22:39;5.50;;;3.43;;
35743;SDS011;21867;52.012;4.324;2024-02-15T13:25:12;4.47;;;3.23;;
35743;SDS011;21867;52.012;4.324;2024-02-15T13:27:49;8.73;;;3.80;;
35743;SDS011;21867;52.012;4.324;2024-02-15T13:33:04;6.30;;;2.90;;
35743;SDS011;21867;52.012;4.324;2024-02-15T13:35:31;6.33;;;3.00;;
35743;SDS011;21867;52.012;4.324;2024-02-15T13:37:59;5.83;;;3.13;;
35743;SDS011;21867;52.012;4.324;2024-02-15T13:40:26;3.53;;;2.70;;
35743;SDS011;21867;52.012;4.324;2024-02-15T13:42:55;7.77;;;2.67;;
35743;SDS011;21867;52.012;4.324;2024-02-15T13:45:23;4.73;;;2.93;;
35743;SDS011;21867;52.012;4.324;2024-02-15T13:47:50;3.73;;;2.73;;
35743;SDS011;21867;52.012;4.324;2024-02-15T13:50:23;8.47;;;2.70;;
35743;SDS011;21867;52.012;4.324;2024-02-15T13:52:50;5.93;;;2.57;;
35743;SDS011;21867;52.012;4.324;2024-02-15T14:01:03;6.17;;;3.00;;
35743;SDS011;21867;52.012;4.324;2024-02-15T14:03:30;3.20;;;2.70;;
35743;SDS011;21867;52.012;4.324;2024-02-15T14:05:59;6.17;;;3.67;;
35743;SDS011;21867;52.012;4.324;2024-02-15T14:08:27;7.30;;;4.13;;
35743;SDS011;21867;52.012;4.324;2024-02-15T14:10:54;5.27;;;3.17;;
35743;SDS011;21867;52.012;4.324;2024-02-15T14:13:22;3.90;;;3.50;;
35743;SDS011;21867;52.012;4.324;2024-02-15T14:15:56;8.30;;;3.30;;
35743;SDS011;21867;52.012;4.324;2024-02-15T14:18:24;8.40;;;3.33;;
35743;SDS011;21867;52.012;4.324;2024-02-15T14:20:51;5.50;;;2.87;;
35743;SDS011;21867;52.012;4.324;2024-02-15T14:23:20;8.97;;;3.77;;
35743;SDS011;21867;52.012;4.324;2024-02-15T14:29:35;6.80;;;3.83;;
35743;SDS011;21867;52.012;4.324;2024-02-15T14:32:03;8.53;;;3.20;;
35743;SDS011;21867;52.012;4.324;2024-02-15T14:34:30;7.53;;;3.33;;
35743;SDS011;21867;52.012;4.324;2024-02-15T14:36:57;4.07;;;3.07;;
35743;SDS011;21867;52.012;4.324;2024-02-15T14:39:26;3.97;;;3.53;;
35743;SDS011;21867;52.012;4.324;2024-02-15T14:41:56;7.70;;;3.87;;
35743;SDS011;21867;52.012;4.324;2024-02-15T14:44:26;5.40;;;3.63;;
35743;SDS011;21867;52.012;4.324;2024-02-15T14:46:54;11.03;;;3.50;;
35743;SDS011;21867;52.012;4.324;2024-02-15T14:49:21;8.50;;;4.17;;
35743;SDS011;21867;52.012;4.324;2024-02-15T14:51:49;6.63;;;4.47;;
35743;SDS011;21867;52.012;4.324;2024-02-15T14:54:16;6.53;;;3.40;;
35743;SDS011;21867;52.012;4.324;2024-02-15T14:59:40;7.63;;;3.63;;
35743;SDS011;21867;52.012;4.324;2024-02-15T15:02:08;8.40;;;4.23;;
35743;SDS011;21867;52.012;4.324;2024-02-15T15:04:38;9.77;;;4.30;;
35743;SDS011;21867;52.012;4.324;2024-02-15T15:07:05;6.77;;;4.10;;
35743;SDS011;21867;52.012;4.324;2024-02-15T15:09:32;9.50;;;3.43;;
35743;SDS011;21867;52.012;4.324;2024-02-15T15:12:00;7.73;;;3.77;;
35743;SDS011;21867;52.012;4.324;2024-02-15T15:17:04;6.60;;;3.60;;